Flight Track Log - Related Links

Times and Time Zones

All times are in EDT time to prevent confusion due to time zone crossing. See the ADR726 flight status page for this flight to view local times or setup timezone preferences in your user account.

Time Position Orientation Groundspeed Altitude Reporting Facility
EDT Latitude Longitude Course Direction KTS MPH feet Rate Location/Type
Sun 05:23:00 PM 45.7095 15.0767 140° Southeast  Level Estimated
Sun 05:24:00 PM 45.6358 15.1642 140° Southeast  Level Estimated
Sun 05:25:00 PM 45.5620 15.2515 140° Southeast  Level Estimated
Sun 05:26:00 PM 45.4881 15.3385 140° Southeast  Level Estimated
Sun 05:27:00 PM 45.4142 15.4254 140° Southeast  Level Estimated
Sun 05:28:00 PM 45.3402 15.5119 141° Southeast  Level Estimated
Sun 05:29:00 PM 45.2662 15.5983 141° Southeast  Level Estimated
Sun 05:30:00 PM 45.1921 15.6845 141° Southeast  Level Estimated
Sun 05:31:00 PM 45.1179 15.7704 141° Southeast  Level Estimated
Sun 05:32:00 PM 45.0436 15.8561 141° Southeast  Level Estimated
Sun 05:33:00 PM 44.9693 15.9415 141° Southeast  Level Estimated
Sun 05:34:00 PM 44.8949 16.0268 141° Southeast  Level Estimated
Sun 05:35:00 PM 44.8205 16.1118 141° Southeast  Level Estimated
Sun 05:36:00 PM 44.7460 16.1966 141° Southeast  Level Estimated
Sun 05:37:00 PM 44.6714 16.2812 141° Southeast  Level Estimated
Sun 05:38:00 PM 44.5968 16.3656 141° Southeast  Level Estimated
Sun 05:39:00 PM 44.5221 16.4498 141° Southeast  Level Estimated
Sun 05:40:00 PM 44.4474 16.5337 141° Southeast  Level Estimated
Sun 05:41:00 PM 44.3726 16.6174 141° Southeast  Level Estimated
Sun 05:42:00 PM 44.2977 16.7009 141° Southeast  Level Estimated
Sun 05:43:00 PM 44.2228 16.7842 141° Southeast  Level Estimated
Sun 05:44:00 PM 44.1478 16.8673 142° Southeast  Level Estimated
Sun 05:45:00 PM 44.0727 16.9502 142° Southeast  Level Estimated
Sun 05:46:00 PM 43.9976 17.0329 142° Southeast  Level Estimated
Sun 05:47:00 PM 43.9224 17.1153 142° Southeast  Level Estimated
Sun 05:48:00 PM 43.8472 17.1976 142° Southeast  Level Estimated
Sun 05:49:00 PM 43.7719 17.2796 142° Southeast  Level Estimated
Sun 05:50:00 PM 43.6966 17.3615 142° Southeast  Level Estimated
Sun 05:51:00 PM 43.6212 17.4431 142° Southeast  Level Estimated
Sun 05:52:00 PM 43.5457 17.5245 142° Southeast  Level Estimated
Sun 05:53:00 PM 43.4702 17.6057 142° Southeast  Level Estimated
Sun 05:54:00 PM 43.3946 17.6868 142° Southeast  Level Estimated
Sun 05:55:00 PM 43.3190 17.7676 142° Southeast  Level Estimated
Sun 05:56:00 PM 43.2433 17.8482 142° Southeast  Level Estimated
Sun 05:57:00 PM 43.1675 17.9286 142° Southeast  Level Estimated
Sun 05:58:00 PM 43.0917 18.0088 142° Southeast  Level Estimated
Sun 05:59:00 PM 43.0158 18.0889 142° Southeast  Level Estimated
Sun 06:00:00 PM 42.9399 18.1687 142° Southeast  Level Estimated
Sun 06:01:00 PM 42.8639 18.2483 142° Southeast  Level Estimated
Sun 06:02:00 PM 42.7879 18.3277 143° Southeast  Level Estimated
Sun 06:03:00 PM 42.7118 18.4070 143° Southeast  Level Estimated
Sun 06:04:00 PM 42.6357 18.4860 143° Southeast  Level Estimated
Sun 06:05:00 PM 42.5595 18.5649 143° Southeast  Level Estimated
Sun 06:06:00 PM 42.4833 18.6435 143° Southeast  Level Estimated
Sun 06:07:00 PM 42.4070 18.7220 143° Southeast  Level Estimated
Sun 06:08:00 PM 42.3306 18.8002 143° Southeast  Level Estimated
Sun 06:09:00 PM 42.2542 18.8783 143° Southeast  Level Estimated
Sun 06:10:00 PM 42.1777 18.9562 143° Southeast  Level Estimated
Sun 06:11:00 PM 42.1012 19.0339 143° Southeast  Level Estimated
Sun 06:12:00 PM 42.0247 19.1114 143° Southeast  Level Estimated
Sun 06:13:00 PM 41.9481 19.1888 143° Southeast  Level Estimated
Sun 06:14:00 PM 41.8714 19.2659 143° Southeast  Level Estimated
Sun 06:15:00 PM 41.7947 19.3429 143° Southeast  Level Estimated
Sun 06:16:00 PM 41.7179 19.4197 143° Southeast  Level Estimated
Sun 06:17:00 PM 41.6411 19.4963 143° Southeast  Level Estimated
Sun 06:18:00 PM 41.5642 19.5727 143° Southeast  Level Estimated
Sun 06:19:00 PM 41.4873 19.6489 143° Southeast  Level Estimated
Sun 06:20:00 PM 41.4147 19.7206 143° Southeast  Level Estimated
Sun 06:21:00 PM 41.4147 19.7206 21° North  Level Estimated
Sun 06:22:00 PM 41.4147 19.7206 21° North  Level Estimated
Sun 06:23:00 PM 41.4147 19.7206 21° North  Level Estimated
Sun 06:24:00 PM 41.4147 19.7206 21° North  Level Estimated
Sun 06:25:00 PM 41.4147 19.7206 21° North  Level Estimated
Sun 06:26:00 PM 41.4147 19.7206 21° North  Level Estimated
Sun 06:27:00 PM 41.4147 19.7206 21° North  Level Estimated
Sun 06:28:00 PM 41.4147 19.7206 21° North  Level Estimated
Sun 06:29:00 PM 41.4147 19.7206 21° North  Level Estimated
Sun 06:30:00 PM 41.4147 19.7206 21° North  Level Estimated
Sun 06:31:00 PM 41.4147 19.7206 21° North  Level Estimated
Sun 06:32:00 PM 41.4147 19.7206 21° North  Level Estimated
Sun 06:33:00 PM 41.4147 19.7206 21° North  Level Estimated
Sun 06:34:00 PM 41.4147 19.7206 21° North  Level Estimated
Sun 06:35:00 PM 41.4147 19.7206 21° North  Level Estimated
Sun 06:36:00 PM 41.4147 19.7206 21° North  Level Estimated

Login

Don't have an account? Register now (free) for customized features, flight alerts, and more!